Terminal Aerodrome Forecast
Issued by NWS Omaha/Valley, NE

Home | Current Version | Previous Version | Text Only | Print | Product List | Glossary On
Versions: 1 2 3 4 5 6 7 8 9 10 11 12 13 14
000
FTUS43 KOAX 130522
TAFOMA
TAF
KOMA 130522Z 1306/1406 22008KT P6SM SKC
     FM131100 29015KT P6SM BKN200 WS020/32049KT
     FM131400 31015G23KT P6SM BKN200
     FM131700 32020G34KT P6SM BKN200
     FM132300 33019G29KT P6SM BKN060
     FM140500 33011KT P6SM SCT110=

USA.gov is the U.S. government's official web portal to all federal, state and local government web resources and services.